sensor_id;sensor_type;location;lat;lon;timestamp;pressure;altitude;pressure_sealevel;temperature;humidity
53635;BME280;39542;-34.932;138.594;2023-05-12T00:00:32;102255.65;;;16.53;62.91
53635;BME280;39542;-34.932;138.594;2023-05-12T00:01:07;102256.78;;;16.54;62.98
53635;BME280;39542;-34.932;138.594;2023-05-12T00:01:41;102256.37;;;16.56;62.89
53635;BME280;39542;-34.932;138.594;2023-05-12T00:02:15;102256.96;;;16.59;62.85
53635;BME280;39542;-34.932;138.594;2023-05-12T00:02:49;102258.18;;;16.61;62.78
53635;BME280;39542;-34.932;138.594;2023-05-12T00:03:24;102258.39;;;16.61;62.84
53635;BME280;39542;-34.932;138.594;2023-05-12T00:03:58;102257.57;;;16.60;62.85
53635;BME280;39542;-34.932;138.594;2023-05-12T00:04:33;102256.66;;;16.57;62.91
53635;BME280;39542;-34.932;138.594;2023-05-12T00:05:07;102257.54;;;16.58;62.91
53635;BME280;39542;-34.932;138.594;2023-05-12T00:05:42;102256.22;;;16.59;62.86
53635;BME280;39542;-34.932;138.594;2023-05-12T00:06:16;102254.23;;;16.60;62.85
53635;BME280;39542;-34.932;138.594;2023-05-12T00:06:50;102256.81;;;16.59;62.85
53635;BME280;39542;-34.932;138.594;2023-05-12T00:07:24;102259.77;;;16.58;62.93
53635;BME280;39542;-34.932;138.594;2023-05-12T00:07:58;102260.37;;;16.61;62.90
53635;BME280;39542;-34.932;138.594;2023-05-12T00:08:33;102257.82;;;16.58;62.94
53635;BME280;39542;-34.932;138.594;2023-05-12T00:09:07;102258.34;;;16.60;62.93
53635;BME280;39542;-34.932;138.594;2023-05-12T00:09:42;102259.28;;;16.59;62.98
53635;BME280;39542;-34.932;138.594;2023-05-12T00:10:16;102260.40;;;16.63;62.87
53635;BME280;39542;-34.932;138.594;2023-05-12T00:10:50;102260.78;;;16.60;62.92
53635;BME280;39542;-34.932;138.594;2023-05-12T00:11:25;102257.67;;;16.61;62.91
53635;BME280;39542;-34.932;138.594;2023-05-12T00:11:59;102257.19;;;16.60;62.93
53635;BME280;39542;-34.932;138.594;2023-05-12T00:12:34;102257.84;;;16.62;62.91
53635;BME280;39542;-34.932;138.594;2023-05-12T00:13:09;102257.95;;;16.63;62.90
53635;BME280;39542;-34.932;138.594;2023-05-12T00:13:43;102259.86;;;16.63;62.88
53635;BME280;39542;-34.932;138.594;2023-05-12T00:14:18;102261.42;;;16.65;62.88
53635;BME280;39542;-34.932;138.594;2023-05-12T00:14:53;102259.94;;;16.64;62.88
53635;BME280;39542;-34.932;138.594;2023-05-12T00:15:27;102255.74;;;16.63;62.94
53635;BME280;39542;-34.932;138.594;2023-05-12T00:16:01;102258.30;;;16.67;62.85
53635;BME280;39542;-34.932;138.594;2023-05-12T00:16:36;102260.09;;;16.70;62.80
53635;BME280;39542;-34.932;138.594;2023-05-12T00:17:10;102259.39;;;16.70;62.82
53635;BME280;39542;-34.932;138.594;2023-05-12T00:17:45;102258.72;;;16.70;62.80
53635;BME280;39542;-34.932;138.594;2023-05-12T00:18:19;102262.12;;;16.66;62.87
53635;BME280;39542;-34.932;138.594;2023-05-12T00:18:53;102258.26;;;16.70;62.81
53635;BME280;39542;-34.932;138.594;2023-05-12T00:19:28;102259.18;;;16.69;62.88
53635;BME280;39542;-34.932;138.594;2023-05-12T00:20:03;102260.49;;;16.67;62.91
53635;BME280;39542;-34.932;138.594;2023-05-12T00:20:37;102259.57;;;16.70;62.86
53635;BME280;39542;-34.932;138.594;2023-05-12T00:21:11;102259.16;;;16.69;62.84
53635;BME280;39542;-34.932;138.594;2023-05-12T00:21:46;102259.14;;;16.66;62.93
53635;BME280;39542;-34.932;138.594;2023-05-12T00:22:20;102261.10;;;16.69;62.90
53635;BME280;39542;-34.932;138.594;2023-05-12T00:22:55;102259.56;;;16.67;62.93
53635;BME280;39542;-34.932;138.594;2023-05-12T00:23:29;102258.78;;;16.69;62.94
53635;BME280;39542;-34.932;138.594;2023-05-12T00:24:03;102263.18;;;16.70;62.91
53635;BME280;39542;-34.932;138.594;2023-05-12T00:24:37;102263.88;;;16.72;62.92
53635;BME280;39542;-34.932;138.594;2023-05-12T00:25:12;102261.29;;;16.65;63.04
53635;BME280;39542;-34.932;138.594;2023-05-12T00:25:46;102262.37;;;16.62;63.07
53635;BME280;39542;-34.932;138.594;2023-05-12T00:26:21;102261.87;;;16.62;63.22
53635;BME280;39542;-34.932;138.594;2023-05-12T00:26:55;102261.77;;;16.70;63.01
53635;BME280;39542;-34.932;138.594;2023-05-12T00:27:29;102264.79;;;16.76;62.88
53635;BME280;39542;-34.932;138.594;2023-05-12T00:28:04;102264.63;;;16.73;62.91
53635;BME280;39542;-34.932;138.594;2023-05-12T00:28:38;102266.58;;;16.74;62.86
53635;BME280;39542;-34.932;138.594;2023-05-12T00:29:12;102264.64;;;16.75;62.89
53635;BME280;39542;-34.932;138.594;2023-05-12T00:29:47;102265.24;;;16.73;62.93
53635;BME280;39542;-34.932;138.594;2023-05-12T00:30:22;102262.78;;;16.70;62.99
53635;BME280;39542;-34.932;138.594;2023-05-12T00:31:00;102264.59;;;16.73;62.94
53635;BME280;39542;-34.932;138.594;2023-05-12T00:31:35;102263.23;;;16.78;62.87
53635;BME280;39542;-34.932;138.594;2023-05-12T00:32:09;102265.29;;;16.82;62.76
53635;BME280;39542;-34.932;138.594;2023-05-12T00:32:44;102265.84;;;16.78;62.88
53635;BME280;39542;-34.932;138.594;2023-05-12T00:33:18;102266.86;;;16.77;62.90
53635;BME280;39542;-34.932;138.594;2023-05-12T00:33:52;102265.10;;;16.80;62.82
53635;BME280;39542;-34.932;138.594;2023-05-12T00:34:27;102265.18;;;16.77;62.90
53635;BME280;39542;-34.932;138.594;2023-05-12T00:35:02;102265.90;;;16.69;63.06
53635;BME280;39542;-34.932;138.594;2023-05-12T00:35:36;102264.77;;;16.69;63.10
53635;BME280;39542;-34.932;138.594;2023-05-12T00:36:10;102267.31;;;16.74;63.05
53635;BME280;39542;-34.932;138.594;2023-05-12T00:36:45;102269.28;;;16.74;62.98
53635;BME280;39542;-34.932;138.594;2023-05-12T00:37:19;102266.95;;;16.72;63.07
53635;BME280;39542;-34.932;138.594;2023-05-12T00:37:53;102267.20;;;16.73;63.01
53635;BME280;39542;-34.932;138.594;2023-05-12T00:38:28;102267.12;;;16.74;62.98
53635;BME280;39542;-34.932;138.594;2023-05-12T00:39:02;102268.76;;;16.72;63.04
53635;BME280;39542;-34.932;138.594;2023-05-12T00:39:37;102267.80;;;16.75;63.01
53635;BME280;39542;-34.932;138.594;2023-05-12T00:40:11;102266.27;;;16.72;63.10
53635;BME280;39542;-34.932;138.594;2023-05-12T00:40:46;102267.48;;;16.77;63.00
53635;BME280;39542;-34.932;138.594;2023-05-12T00:41:21;102267.41;;;16.75;63.03
53635;BME280;39542;-34.932;138.594;2023-05-12T00:41:57;102269.96;;;16.76;63.05
53635;BME280;39542;-34.932;138.594;2023-05-12T00:42:33;102269.10;;;16.74;63.10
53635;BME280;39542;-34.932;138.594;2023-05-12T00:43:07;102270.90;;;16.75;63.05
53635;BME280;39542;-34.932;138.594;2023-05-12T00:43:41;102269.96;;;16.81;62.96
53635;BME280;39542;-34.932;138.594;2023-05-12T00:44:15;102269.60;;;16.74;63.14
53635;BME280;39542;-34.932;138.594;2023-05-12T00:44:50;102267.84;;;16.77;63.11
53635;BME280;39542;-34.932;138.594;2023-05-12T00:45:24;102265.68;;;16.76;63.14
53635;BME280;39542;-34.932;138.594;2023-05-12T00:45:58;102267.91;;;16.76;63.15
53635;BME280;39542;-34.932;138.594;2023-05-12T00:46:33;102267.47;;;16.79;63.10
53635;BME280;39542;-34.932;138.594;2023-05-12T00:47:08;102267.18;;;16.73;63.20
53635;BME280;39542;-34.932;138.594;2023-05-12T00:47:43;102263.06;;;16.75;63.18
53635;BME280;39542;-34.932;138.594;2023-05-12T00:48:18;102266.25;;;16.71;63.26
53635;BME280;39542;-34.932;138.594;2023-05-12T00:48:53;102267.49;;;16.74;63.20
53635;BME280;39542;-34.932;138.594;2023-05-12T00:49:28;102267.72;;;16.79;63.09
53635;BME280;39542;-34.932;138.594;2023-05-12T00:50:03;102267.74;;;16.74;63.20
53635;BME280;39542;-34.932;138.594;2023-05-12T00:50:38;102266.81;;;16.78;63.08
53635;BME280;39542;-34.932;138.594;2023-05-12T00:51:12;102265.95;;;16.72;63.20
53635;BME280;39542;-34.932;138.594;2023-05-12T00:51:48;102267.33;;;16.69;63.26
53635;BME280;39542;-34.932;138.594;2023-05-12T00:52:23;102264.66;;;16.68;63.28
53635;BME280;39542;-34.932;138.594;2023-05-12T00:52:59;102265.25;;;16.72;63.23
53635;BME280;39542;-34.932;138.594;2023-05-12T00:53:33;102268.09;;;16.72;63.24
53635;BME280;39542;-34.932;138.594;2023-05-12T00:54:09;102268.79;;;16.67;63.33
53635;BME280;39542;-34.932;138.594;2023-05-12T00:54:44;102268.45;;;16.71;63.26
53635;BME280;39542;-34.932;138.594;2023-05-12T00:55:19;102267.31;;;16.70;63.32
53635;BME280;39542;-34.932;138.594;2023-05-12T00:55:53;102269.29;;;16.72;63.31
53635;BME280;39542;-34.932;138.594;2023-05-12T00:56:27;102270.79;;;16.72;63.33
53635;BME280;39542;-34.932;138.594;2023-05-12T00:57:02;102267.82;;;16.75;63.20
53635;BME280;39542;-34.932;138.594;2023-05-12T00:57:36;102271.02;;;16.79;63.17
53635;BME280;39542;-34.932;138.594;2023-05-12T00:58:10;102271.82;;;16.78;63.19
53635;BME280;39542;-34.932;138.594;2023-05-12T00:58:45;102271.91;;;16.77;63.23
53635;BME280;39542;-34.932;138.594;2023-05-12T00:59:19;102272.38;;;16.82;63.16
53635;BME280;39542;-34.932;138.594;2023-05-12T00:59:54;102272.68;;;16.76;63.26
53635;BME280;39542;-34.932;138.594;2023-05-12T01:00:28;102272.09;;;16.77;63.29
53635;BME280;39542;-34.932;138.594;2023-05-12T01:01:03;102273.35;;;16.76;63.31
53635;BME280;39542;-34.932;138.594;2023-05-12T01:01:37;102275.33;;;16.75;63.30
53635;BME280;39542;-34.932;138.594;2023-05-12T01:02:12;102274.41;;;16.76;63.30
53635;BME280;39542;-34.932;138.594;2023-05-12T01:02:47;102270.80;;;16.82;63.17
53635;BME280;39542;-34.932;138.594;2023-05-12T01:03:21;102272.06;;;16.82;63.14
53635;BME280;39542;-34.932;138.594;2023-05-12T01:03:55;102273.69;;;16.79;63.22
53635;BME280;39542;-34.932;138.594;2023-05-12T01:04:30;102271.95;;;16.79;63.23
53635;BME280;39542;-34.932;138.594;2023-05-12T01:05:05;102270.31;;;16.83;63.14
53635;BME280;39542;-34.932;138.594;2023-05-12T01:05:45;102271.29;;;16.78;63.23
53635;BME280;39542;-34.932;138.594;2023-05-12T01:06:27;102271.88;;;16.76;63.32
53635;BME280;39542;-34.932;138.594;2023-05-12T01:07:05;102273.11;;;16.79;63.27
53635;BME280;39542;-34.932;138.594;2023-05-12T01:07:43;102271.56;;;16.81;63.25
53635;BME280;39542;-34.932;138.594;2023-05-12T01:08:20;102271.42;;;16.81;63.24
53635;BME280;39542;-34.932;138.594;2023-05-12T01:08:55;102271.25;;;16.84;63.19
53635;BME280;39542;-34.932;138.594;2023-05-12T01:09:30;102272.22;;;16.85;63.13
53635;BME280;39542;-34.932;138.594;2023-05-12T01:10:14;102270.73;;;16.82;63.22
53635;BME280;39542;-34.932;138.594;2023-05-12T01:10:49;102271.02;;;16.81;63.24
53635;BME280;39542;-34.932;138.594;2023-05-12T01:11:24;102270.66;;;16.84;63.17
53635;BME280;39542;-34.932;138.594;2023-05-12T01:11:58;102269.64;;;16.81;63.24
53635;BME280;39542;-34.932;138.594;2023-05-12T01:12:32;102269.74;;;16.82;63.25
53635;BME280;39542;-34.932;138.594;2023-05-12T01:13:06;102269.02;;;16.82;63.25
53635;BME280;39542;-34.932;138.594;2023-05-12T01:13:41;102269.97;;;16.81;63.27
53635;BME280;39542;-34.932;138.594;2023-05-12T01:14:15;102272.36;;;16.83;63.23
53635;BME280;39542;-34.932;138.594;2023-05-12T01:14:50;102274.59;;;16.78;63.36
53635;BME280;39542;-34.932;138.594;2023-05-12T01:15:25;102273.93;;;16.75;63.46
53635;BME280;39542;-34.932;138.594;2023-05-12T01:16:00;102275.01;;;16.76;63.42
53635;BME280;39542;-34.932;138.594;2023-05-12T01:16:38;102273.27;;;16.82;63.24
53635;BME280;39542;-34.932;138.594;2023-05-12T01:17:17;102272.73;;;16.84;63.22
53635;BME280;39542;-34.932;138.594;2023-05-12T01:17:56;102274.55;;;16.81;63.28
53635;BME280;39542;-34.932;138.594;2023-05-12T01:18:34;102275.64;;;16.85;63.25
53635;BME280;39542;-34.932;138.594;2023-05-12T01:19:16;102274.54;;;16.82;63.31
53635;BME280;39542;-34.932;138.594;2023-05-12T01:19:55;102276.21;;;16.82;63.34
53635;BME280;39542;-34.932;138.594;2023-05-12T01:20:29;102275.49;;;16.86;63.32
53635;BME280;39542;-34.932;138.594;2023-05-12T01:21:05;102273.15;;;16.83;63.31
53635;BME280;39542;-34.932;138.594;2023-05-12T01:21:39;102274.44;;;16.85;63.27
53635;BME280;39542;-34.932;138.594;2023-05-12T01:22:15;102273.90;;;16.82;63.39
53635;BME280;39542;-34.932;138.594;2023-05-12T01:22:50;102271.82;;;16.83;63.31
53635;BME280;39542;-34.932;138.594;2023-05-12T01:23:29;102271.73;;;16.79;63.49
53635;BME280;39542;-34.932;138.594;2023-05-12T01:24:09;102271.73;;;16.79;63.44
53635;BME280;39542;-34.932;138.594;2023-05-12T01:24:49;102272.37;;;16.80;63.44
53635;BME280;39542;-34.932;138.594;2023-05-12T01:25:25;102271.25;;;16.81;63.40
53635;BME280;39542;-34.932;138.594;2023-05-12T01:26:04;102273.68;;;16.79;63.51
53635;BME280;39542;-34.932;138.594;2023-05-12T01:26:39;102269.62;;;16.83;63.37
53635;BME280;39542;-34.932;138.594;2023-05-12T01:27:14;102269.19;;;16.85;63.31
53635;BME280;39542;-34.932;138.594;2023-05-12T01:27:49;102270.69;;;16.85;63.28
53635;BME280;39542;-34.932;138.594;2023-05-12T01:28:25;102269.35;;;16.83;63.35
53635;BME280;39542;-34.932;138.594;2023-05-12T01:29:00;102268.61;;;16.82;63.35
53635;BME280;39542;-34.932;138.594;2023-05-12T01:29:35;102270.65;;;16.83;63.37
53635;BME280;39542;-34.932;138.594;2023-05-12T01:30:14;102269.91;;;16.84;63.34
53635;BME280;39542;-34.932;138.594;2023-05-12T01:30:49;102268.00;;;16.77;63.49
53635;BME280;39542;-34.932;138.594;2023-05-12T01:31:24;102267.54;;;16.79;63.48
53635;BME280;39542;-34.932;138.594;2023-05-12T01:31:59;102269.38;;;16.79;63.44
53635;BME280;39542;-34.932;138.594;2023-05-12T01:32:35;102267.69;;;16.82;63.45
53635;BME280;39542;-34.932;138.594;2023-05-12T01:33:11;102266.11;;;16.82;63.45
53635;BME280;39542;-34.932;138.594;2023-05-12T01:33:46;102267.31;;;16.79;63.48
53635;BME280;39542;-34.932;138.594;2023-05-12T01:34:21;102267.11;;;16.79;63.55
53635;BME280;39542;-34.932;138.594;2023-05-12T01:34:55;102263.76;;;16.86;63.35
53635;BME280;39542;-34.932;138.594;2023-05-12T01:35:29;102265.23;;;16.87;63.30
53635;BME280;39542;-34.932;138.594;2023-05-12T01:36:04;102264.70;;;16.85;63.36
53635;BME280;39542;-34.932;138.594;2023-05-12T01:36:38;102263.69;;;16.86;63.35
53635;BME280;39542;-34.932;138.594;2023-05-12T01:37:13;102263.84;;;16.84;63.37
53635;BME280;39542;-34.932;138.594;2023-05-12T01:37:47;102263.29;;;16.82;63.43
53635;BME280;39542;-34.932;138.594;2023-05-12T01:38:22;102262.39;;;16.79;63.48
53635;BME280;39542;-34.932;138.594;2023-05-12T01:38:56;102263.28;;;16.85;63.35
53635;BME280;39542;-34.932;138.594;2023-05-12T01:39:30;102260.33;;;16.83;63.40
53635;BME280;39542;-34.932;138.594;2023-05-12T01:40:06;102262.17;;;16.85;63.36
53635;BME280;39542;-34.932;138.594;2023-05-12T01:40:40;102262.13;;;16.91;63.22
53635;BME280;39542;-34.932;138.594;2023-05-12T01:41:14;102262.68;;;16.86;63.31
53635;BME280;39542;-34.932;138.594;2023-05-12T01:41:49;102261.42;;;16.85;63.36
53635;BME280;39542;-34.932;138.594;2023-05-12T01:42:23;102261.26;;;16.87;63.33
53635;BME280;39542;-34.932;138.594;2023-05-12T01:42:58;102260.36;;;16.85;63.38
53635;BME280;39542;-34.932;138.594;2023-05-12T01:43:32;102259.25;;;16.85;63.40
53635;BME280;39542;-34.932;138.594;2023-05-12T01:44:07;102259.67;;;16.87;63.34
53635;BME280;39542;-34.932;138.594;2023-05-12T01:44:41;102258.85;;;16.91;63.27
53635;BME280;39542;-34.932;138.594;2023-05-12T01:45:16;102257.89;;;16.90;63.27
53635;BME280;39542;-34.932;138.594;2023-05-12T01:45:50;102259.53;;;16.91;63.30
53635;BME280;39542;-34.932;138.594;2023-05-12T01:46:24;102257.10;;;16.91;63.25
53635;BME280;39542;-34.932;138.594;2023-05-12T01:46:58;102256.51;;;16.90;63.30
53635;BME280;39542;-34.932;138.594;2023-05-12T01:47:33;102257.98;;;16.94;63.20
53635;BME280;39542;-34.932;138.594;2023-05-12T01:48:07;102255.63;;;16.92;63.21
53635;BME280;39542;-34.932;138.594;2023-05-12T01:48:41;102256.03;;;16.91;63.23
53635;BME280;39542;-34.932;138.594;2023-05-12T01:49:16;102256.08;;;16.88;63.30
53635;BME280;39542;-34.932;138.594;2023-05-12T01:49:50;102256.24;;;16.85;63.40
53635;BME280;39542;-34.932;138.594;2023-05-12T01:50:24;102254.70;;;16.92;63.27
53635;BME280;39542;-34.932;138.594;2023-05-12T01:51:00;102250.93;;;16.90;63.25
53635;BME280;39542;-34.932;138.594;2023-05-12T01:51:34;102254.16;;;16.90;63.30
53635;BME280;39542;-34.932;138.594;2023-05-12T01:52:08;102254.65;;;16.89;63.34
53635;BME280;39542;-34.932;138.594;2023-05-12T01:52:42;102253.50;;;16.91;63.27
53635;BME280;39542;-34.932;138.594;2023-05-12T01:53:17;102254.33;;;16.90;63.34
53635;BME280;39542;-34.932;138.594;2023-05-12T01:53:51;102253.62;;;16.90;63.30
53635;BME280;39542;-34.932;138.594;2023-05-12T01:54:25;102251.32;;;16.88;63.37
53635;BME280;39542;-34.932;138.594;2023-05-12T01:55:00;102250.39;;;16.92;63.29
53635;BME280;39542;-34.932;138.594;2023-05-12T01:55:34;102252.10;;;16.87;63.39
53635;BME280;39542;-34.932;138.594;2023-05-12T01:56:08;102248.35;;;16.89;63.36
53635;BME280;39542;-34.932;138.594;2023-05-12T01:56:43;102248.52;;;16.88;63.43
53635;BME280;39542;-34.932;138.594;2023-05-12T01:57:17;102247.82;;;16.94;63.33
53635;BME280;39542;-34.932;138.594;2023-05-12T01:57:52;102248.69;;;16.90;63.38
53635;BME280;39542;-34.932;138.594;2023-05-12T01:58:27;102246.23;;;16.87;63.43
53635;BME280;39542;-34.932;138.594;2023-05-12T01:59:01;102243.41;;;16.91;63.34
53635;BME280;39542;-34.932;138.594;2023-05-12T01:59:35;102243.61;;;16.89;63.40
53635;BME280;39542;-34.932;138.594;2023-05-12T02:00:10;102242.36;;;16.96;63.26
53635;BME280;39542;-34.932;138.594;2023-05-12T02:00:45;102239.70;;;16.95;63.30
53635;BME280;39542;-34.932;138.594;2023-05-12T02:01:19;102237.16;;;16.95;63.33
53635;BME280;39542;-34.932;138.594;2023-05-12T02:01:53;102236.46;;;16.92;63.36
53635;BME280;39542;-34.932;138.594;2023-05-12T02:02:28;102231.92;;;16.86;63.47
53635;BME280;39542;-34.932;138.594;2023-05-12T02:03:02;102229.80;;;16.86;63.52
53635;BME280;39542;-34.932;138.594;2023-05-12T02:03:36;102231.65;;;16.86;63.49
53635;BME280;39542;-34.932;138.594;2023-05-12T02:04:11;102230.36;;;16.87;63.56
53635;BME280;39542;-34.932;138.594;2023-05-12T02:04:45;102228.95;;;16.86;63.50
53635;BME280;39542;-34.932;138.594;2023-05-12T02:05:19;102230.83;;;16.85;63.56
53635;BME280;39542;-34.932;138.594;2023-05-12T02:05:53;102231.97;;;16.87;63.54
53635;BME280;39542;-34.932;138.594;2023-05-12T02:06:28;102228.08;;;16.86;63.48
53635;BME280;39542;-34.932;138.594;2023-05-12T02:07:02;102230.51;;;16.86;63.53
53635;BME280;39542;-34.932;138.594;2023-05-12T02:07:36;102229.43;;;16.90;63.47
53635;BME280;39542;-34.932;138.594;2023-05-12T02:08:11;102229.01;;;16.89;63.45
53635;BME280;39542;-34.932;138.594;2023-05-12T02:08:46;102227.18;;;16.87;63.51
53635;BME280;39542;-34.932;138.594;2023-05-12T02:09:20;102228.27;;;16.89;63.51
53635;BME280;39542;-34.932;138.594;2023-05-12T02:09:55;102228.00;;;16.87;63.55
53635;BME280;39542;-34.932;138.594;2023-05-12T02:10:29;102226.73;;;16.90;63.45
53635;BME280;39542;-34.932;138.594;2023-05-12T02:11:07;102227.16;;;16.93;63.44
53635;BME280;39542;-34.932;138.594;2023-05-12T02:11:42;102226.60;;;16.96;63.41
53635;BME280;39542;-34.932;138.594;2023-05-12T02:12:16;102228.24;;;16.90;63.48
53635;BME280;39542;-34.932;138.594;2023-05-12T02:12:50;102227.43;;;16.88;63.53
53635;BME280;39542;-34.932;138.594;2023-05-12T02:13:24;102225.43;;;16.88;63.55
53635;BME280;39542;-34.932;138.594;2023-05-12T02:13:58;102225.00;;;16.93;63.45
53635;BME280;39542;-34.932;138.594;2023-05-12T02:14:33;102225.79;;;16.93;63.44
53635;BME280;39542;-34.932;138.594;2023-05-12T02:15:08;102225.77;;;16.92;63.39
53635;BME280;39542;-34.932;138.594;2023-05-12T02:15:42;102225.91;;;16.89;63.54
53635;BME280;39542;-34.932;138.594;2023-05-12T02:16:16;102226.84;;;16.93;63.48
53635;BME280;39542;-34.932;138.594;2023-05-12T02:16:50;102225.99;;;16.88;63.52
53635;BME280;39542;-34.932;138.594;2023-05-12T02:17:25;102224.31;;;16.88;63.58
53635;BME280;39542;-34.932;138.594;2023-05-12T02:17:59;102227.27;;;16.93;63.53
53635;BME280;39542;-34.932;138.594;2023-05-12T02:18:34;102225.07;;;16.92;63.54
53635;BME280;39542;-34.932;138.594;2023-05-12T02:19:08;102224.79;;;16.92;63.51
53635;BME280;39542;-34.932;138.594;2023-05-12T02:19:43;102226.01;;;16.96;63.55
53635;BME280;39542;-34.932;138.594;2023-05-12T02:20:17;102223.85;;;16.90;63.61
53635;BME280;39542;-34.932;138.594;2023-05-12T02:20:51;102225.49;;;16.95;63.54
53635;BME280;39542;-34.932;138.594;2023-05-12T02:21:25;102225.26;;;16.98;63.48
53635;BME280;39542;-34.932;138.594;2023-05-12T02:22:00;102225.51;;;16.99;63.42
53635;BME280;39542;-34.932;138.594;2023-05-12T02:22:34;102223.49;;;16.98;63.43
53635;BME280;39542;-34.932;138.594;2023-05-12T02:23:09;102221.05;;;16.97;63.46
53635;BME280;39542;-34.932;138.594;2023-05-12T02:23:43;102218.52;;;16.97;63.51
53635;BME280;39542;-34.932;138.594;2023-05-12T02:24:17;102217.53;;;17.00;63.43
53635;BME280;39542;-34.932;138.594;2023-05-12T02:24:52;102216.40;;;16.98;63.46
53635;BME280;39542;-34.932;138.594;2023-05-12T02:25:26;102217.13;;;16.97;63.48
53635;BME280;39542;-34.932;138.594;2023-05-12T02:26:00;102216.21;;;16.98;63.50
53635;BME280;39542;-34.932;138.594;2023-05-12T02:26:34;102215.37;;;16.94;63.55
53635;BME280;39542;-34.932;138.594;2023-05-12T02:27:09;102216.45;;;16.95;63.57
53635;BME280;39542;-34.932;138.594;2023-05-12T02:27:43;102215.12;;;16.94;63.56
53635;BME280;39542;-34.932;138.594;2023-05-12T02:28:17;102213.69;;;16.96;63.57
53635;BME280;39542;-34.932;138.594;2023-05-12T02:28:52;102215.00;;;16.93;63.64
53635;BME280;39542;-34.932;138.594;2023-05-12T02:29:26;102212.77;;;16.96;63.56
53635;BME280;39542;-34.932;138.594;2023-05-12T02:30:00;102213.01;;;16.94;63.56
53635;BME280;39542;-34.932;138.594;2023-05-12T02:30:35;102210.26;;;16.94;63.60
53635;BME280;39542;-34.932;138.594;2023-05-12T02:31:09;102213.48;;;16.99;63.58
53635;BME280;39542;-34.932;138.594;2023-05-12T02:31:44;102211.93;;;16.96;63.62
53635;BME280;39542;-34.932;138.594;2023-05-12T02:32:18;102214.75;;;16.97;63.60
53635;BME280;39542;-34.932;138.594;2023-05-12T02:32:52;102214.26;;;17.00;63.63
53635;BME280;39542;-34.932;138.594;2023-05-12T02:33:26;102211.40;;;17.00;63.54
53635;BME280;39542;-34.932;138.594;2023-05-12T02:34:00;102212.00;;;16.99;63.55
53635;BME280;39542;-34.932;138.594;2023-05-12T02:34:35;102209.97;;;16.99;63.55
53635;BME280;39542;-34.932;138.594;2023-05-12T02:35:10;102211.28;;;16.99;63.54
53635;BME280;39542;-34.932;138.594;2023-05-12T02:35:44;102210.11;;;16.96;63.59
53635;BME280;39542;-34.932;138.594;2023-05-12T02:36:19;102208.87;;;16.96;63.58
53635;BME280;39542;-34.932;138.594;2023-05-12T02:36:53;102207.58;;;16.98;63.62
53635;BME280;39542;-34.932;138.594;2023-05-12T02:37:27;102208.00;;;16.96;63.65
53635;BME280;39542;-34.932;138.594;2023-05-12T02:38:01;102208.86;;;16.96;63.59
53635;BME280;39542;-34.932;138.594;2023-05-12T02:38:35;102208.70;;;17.00;63.52
53635;BME280;39542;-34.932;138.594;2023-05-12T02:39:10;102206.06;;;17.01;63.52
53635;BME280;39542;-34.932;138.594;2023-05-12T02:39:44;102206.33;;;17.00;63.48
53635;BME280;39542;-34.932;138.594;2023-05-12T02:40:18;102205.53;;;16.97;63.60
53635;BME280;39542;-34.932;138.594;2023-05-12T02:40:52;102203.44;;;16.98;63.56
53635;BME280;39542;-34.932;138.594;2023-05-12T02:41:27;102202.39;;;16.99;63.47
53635;BME280;39542;-34.932;138.594;2023-05-12T02:42:01;102200.34;;;16.95;63.60
53635;BME280;39542;-34.932;138.594;2023-05-12T02:42:35;102200.86;;;16.94;63.61
53635;BME280;39542;-34.932;138.594;2023-05-12T02:43:09;102199.99;;;16.90;63.68
53635;BME280;39542;-34.932;138.594;2023-05-12T02:43:44;102197.78;;;16.93;63.63
53635;BME280;39542;-34.932;138.594;2023-05-12T02:44:18;102196.26;;;16.97;63.55
53635;BME280;39542;-34.932;138.594;2023-05-12T02:44:52;102195.56;;;17.03;63.40
53635;BME280;39542;-34.932;138.594;2023-05-12T02:45:26;102195.74;;;17.01;63.43
53635;BME280;39542;-34.932;138.594;2023-05-12T02:46:00;102197.08;;;17.05;63.37
53635;BME280;39542;-34.932;138.594;2023-05-12T02:46:34;102194.71;;;17.00;63.46
53635;BME280;39542;-34.932;138.594;2023-05-12T02:47:08;102195.14;;;17.09;63.26
53635;BME280;39542;-34.932;138.594;2023-05-12T02:47:43;102193.46;;;17.09;63.20
53635;BME280;39542;-34.932;138.594;2023-05-12T02:48:17;102191.45;;;17.04;63.31
53635;BME280;39542;-34.932;138.594;2023-05-12T02:48:51;102192.58;;;17.03;63.34
53635;BME280;39542;-34.932;138.594;2023-05-12T02:49:25;102192.27;;;16.99;63.46
53635;BME280;39542;-34.932;138.594;2023-05-12T02:50:00;102192.66;;;17.07;63.30
53635;BME280;39542;-34.932;138.594;2023-05-12T02:50:34;102194.73;;;17.06;63.29
53635;BME280;39542;-34.932;138.594;2023-05-12T02:51:08;102192.07;;;17.04;63.35
53635;BME280;39542;-34.932;138.594;2023-05-12T02:51:43;102191.43;;;17.00;63.42
53635;BME280;39542;-34.932;138.594;2023-05-12T02:52:17;102193.21;;;17.02;63.34
53635;BME280;39542;-34.932;138.594;2023-05-12T02:52:51;102190.76;;;17.04;63.34
53635;BME280;39542;-34.932;138.594;2023-05-12T02:53:26;102192.59;;;17.01;63.45
53635;BME280;39542;-34.932;138.594;2023-05-12T02:54:00;102189.90;;;16.99;63.49
53635;BME280;39542;-34.932;138.594;2023-05-12T02:54:34;102187.17;;;16.99;63.64
53635;BME280;39542;-34.932;138.594;2023-05-12T02:55:08;102188.18;;;17.02;63.54